createdAt,value
2023-03-22T00:00:30.541Z,9.86
2023-03-22T00:02:58.438Z,9.90
2023-03-22T00:05:25.952Z,9.95
2023-03-22T00:07:58.161Z,9.97
2023-03-22T00:10:27.635Z,9.99
2023-03-22T00:12:55.743Z,10.03
2023-03-22T00:15:23.730Z,10.01
2023-03-22T00:17:52.017Z,9.99
2023-03-22T00:20:20.864Z,9.94
2023-03-22T00:22:48.355Z,10.00
2023-03-22T00:25:16.192Z,9.97
2023-03-22T00:27:44.089Z,10.02
2023-03-22T00:30:12.127Z,10.02
2023-03-22T00:32:39.902Z,10.03
2023-03-22T00:35:08.134Z,10.03
2023-03-22T00:37:38.865Z,10.05
2023-03-22T00:40:12.476Z,10.04
2023-03-22T00:42:41.723Z,10.05
2023-03-22T00:45:11.558Z,10.07
2023-03-22T00:47:39.477Z,10.07
2023-03-22T00:50:07.900Z,10.09
2023-03-22T00:52:35.618Z,10.06
2023-03-22T00:55:03.223Z,10.05
2023-03-22T00:57:30.850Z,10.08
2023-03-22T00:59:58.635Z,10.05
2023-03-22T01:02:29.929Z,10.07
2023-03-22T01:04:58.016Z,10.06
2023-03-22T01:07:26.842Z,10.08
2023-03-22T01:09:54.850Z,10.02
2023-03-22T01:12:22.368Z,9.94
2023-03-22T01:14:49.970Z,9.90
2023-03-22T01:17:17.688Z,9.83
2023-03-22T01:19:45.493Z,9.78
2023-03-22T01:22:13.146Z,9.75
2023-03-22T01:24:40.966Z,9.73
2023-03-22T01:27:08.490Z,9.75
2023-03-22T01:29:36.057Z,9.84
2023-03-22T01:32:04.362Z,9.90
2023-03-22T01:34:32.342Z,9.82
2023-03-22T01:37:00.920Z,9.74
2023-03-22T01:39:29.773Z,9.73
2023-03-22T01:41:59.793Z,9.71
2023-03-22T01:44:30.942Z,9.68
2023-03-22T01:47:00.351Z,9.62
2023-03-22T01:49:34.636Z,9.60
2023-03-22T01:52:07.023Z,9.58
2023-03-22T01:54:54.397Z,9.54
2023-03-22T01:58:01.875Z,9.52
2023-03-22T02:00:41.162Z,9.45
2023-03-22T02:03:41.580Z,9.44
2023-03-22T02:06:11.916Z,9.33
2023-03-22T02:08:40.964Z,9.27
2023-03-22T02:11:25.363Z,9.15
2023-03-22T02:14:20.369Z,9.09
2023-03-22T02:18:18.672Z,8.95
2023-03-22T02:21:06.227Z,8.82
2023-03-22T02:23:54.517Z,8.79
2023-03-22T02:26:50.433Z,8.70
2023-03-22T02:29:34.055Z,8.65
2023-03-22T02:32:07.690Z,8.57
2023-03-22T02:35:02.136Z,8.56
2023-03-22T02:37:37.115Z,8.48
2023-03-22T02:40:31.195Z,8.47
2023-03-22T02:43:11.106Z,8.42
2023-03-22T02:45:54.003Z,8.46
2023-03-22T02:48:30.989Z,8.46
2023-03-22T02:51:18.482Z,8.40
2023-03-22T02:54:03.985Z,8.36
2023-03-22T02:56:48.188Z,8.34
2023-03-22T02:59:19.965Z,8.35
2023-03-22T03:01:52.067Z,8.37
2023-03-22T03:04:30.408Z,8.33
2023-03-22T03:07:12.033Z,8.37
2023-03-22T03:09:42.183Z,8.37
2023-03-22T03:12:19.661Z,8.38
2023-03-22T03:14:47.421Z,8.36
2023-03-22T03:17:42.748Z,8.33
2023-03-22T03:20:30.265Z,8.27
2023-03-22T03:23:22.388Z,8.23
2023-03-22T03:26:17.340Z,8.20
2023-03-22T03:29:16.437Z,8.14
2023-03-22T03:32:04.729Z,8.09
2023-03-22T03:34:39.886Z,7.99
2023-03-22T03:37:18.791Z,7.95
2023-03-22T03:39:56.262Z,7.98
2023-03-22T03:42:27.627Z,7.95
2023-03-22T03:44:56.366Z,7.92
2023-03-22T03:47:25.419Z,7.81
2023-03-22T03:49:53.029Z,7.82
2023-03-22T03:52:24.747Z,7.82
2023-03-22T03:54:52.818Z,7.77
2023-03-22T03:57:27.333Z,7.74
2023-03-22T03:59:55.103Z,7.73
2023-03-22T04:02:44.556Z,7.67
2023-03-22T04:05:26.696Z,7.68
2023-03-22T04:07:54.237Z,7.61
2023-03-22T04:10:21.996Z,7.54
2023-03-22T04:12:49.605Z,7.54
2023-03-22T04:15:18.440Z,7.51
2023-03-22T04:17:54.022Z,7.50
2023-03-22T04:20:26.375Z,7.45
2023-03-22T04:22:56.952Z,7.44
2023-03-22T04:25:30.455Z,7.45
2023-03-22T04:28:10.866Z,7.48
2023-03-22T04:30:39.132Z,7.47
2023-03-22T04:33:32.669Z,7.38
2023-03-22T04:36:17.609Z,7.32
2023-03-22T04:39:10.831Z,7.22
2023-03-22T04:41:39.341Z,7.20
2023-03-22T04:44:07.887Z,7.16
2023-03-22T04:46:39.368Z,7.11
2023-03-22T04:49:07.809Z,7.09
2023-03-22T04:51:39.210Z,7.09
2023-03-22T04:54:23.440Z,7.06
2023-03-22T04:56:51.880Z,7.03
2023-03-22T04:59:22.237Z,7.04
2023-03-22T05:01:51.744Z,7.04
2023-03-22T05:04:23.120Z,7.08
2023-03-22T05:06:57.340Z,7.08
2023-03-22T05:09:31.788Z,7.00
2023-03-22T05:11:59.450Z,7.09
2023-03-22T05:14:48.912Z,7.27
2023-03-22T05:17:21.735Z,7.54
2023-03-22T05:19:52.041Z,7.83
2023-03-22T05:22:22.566Z,8.03
2023-03-22T05:24:52.012Z,7.79
2023-03-22T05:27:31.571Z,7.62
2023-03-22T05:30:25.466Z,7.23
2023-03-22T05:33:03.372Z,7.05
2023-03-22T05:35:36.415Z,6.97
2023-03-22T05:38:05.129Z,7.08
2023-03-22T05:40:35.482Z,7.09
2023-03-22T05:43:02.970Z,7.24
2023-03-22T05:45:32.701Z,7.35
2023-03-22T05:48:26.853Z,7.53
2023-03-22T05:50:54.629Z,7.77
2023-03-22T05:53:22.450Z,8.18
2023-03-22T05:56:10.067Z,8.91
2023-03-22T05:58:41.280Z,9.88
2023-03-22T06:01:13.246Z,10.84
2023-03-22T06:03:48.590Z,11.40
2023-03-22T06:06:36.404Z,11.91
2023-03-22T06:09:17.290Z,11.91
2023-03-22T06:11:49.611Z,11.57
2023-03-22T06:14:17.836Z,11.65
2023-03-22T06:17:03.975Z,11.63
2023-03-22T06:19:31.965Z,11.55
2023-03-22T06:22:02.642Z,11.73
2023-03-22T06:24:32.185Z,11.58
2023-03-22T06:26:59.827Z,11.61
2023-03-22T06:29:28.463Z,11.78
2023-03-22T06:31:58.629Z,11.94
2023-03-22T06:34:26.622Z,12.70
2023-03-22T06:36:54.502Z,13.35
2023-03-22T06:39:34.815Z,13.69
2023-03-22T06:42:03.298Z,14.40
2023-03-22T06:44:30.922Z,14.39
2023-03-22T06:47:19.217Z,14.63
2023-03-22T06:49:58.573Z,14.26
2023-03-22T06:52:38.214Z,14.23
2023-03-22T06:55:08.604Z,14.25
2023-03-22T06:57:36.252Z,14.26
2023-03-22T07:00:05.400Z,14.31
2023-03-22T07:02:33.030Z,14.24
2023-03-22T07:05:18.923Z,14.38
2023-03-22T07:07:46.598Z,14.34
2023-03-22T07:10:14.034Z,14.10
2023-03-22T07:12:41.779Z,14.20
2023-03-22T07:15:13.005Z,14.23
2023-03-22T07:17:51.893Z,14.29
2023-03-22T07:20:19.872Z,14.47
2023-03-22T07:22:50.954Z,14.87
2023-03-22T07:25:20.950Z,15.10
2023-03-22T07:27:52.617Z,15.36
2023-03-22T07:30:22.393Z,15.50
2023-03-22T07:32:50.016Z,15.38
2023-03-22T07:35:19.085Z,15.13
2023-03-22T07:37:48.706Z,15.21
2023-03-22T07:40:23.618Z,15.16
2023-03-22T07:42:55.824Z,15.03
2023-03-22T07:45:55.991Z,15.36
2023-03-22T07:48:42.463Z,15.41
2023-03-22T07:51:39.532Z,15.72
2023-03-22T07:54:07.940Z,15.83
2023-03-22T07:56:35.728Z,15.79
2023-03-22T07:59:04.279Z,16.07
2023-03-22T08:01:31.778Z,16.51
2023-03-22T08:04:11.903Z,17.16
2023-03-22T08:07:02.885Z,17.83
2023-03-22T08:09:30.397Z,17.87
2023-03-22T08:11:58.015Z,18.39
2023-03-22T08:14:35.844Z,18.48
2023-03-22T08:17:06.900Z,18.40
2023-03-22T08:19:35.045Z,18.23
2023-03-22T08:22:03.446Z,17.91
2023-03-22T08:24:51.774Z,18.27
2023-03-22T08:27:31.644Z,18.33
2023-03-22T08:30:01.117Z,18.32
2023-03-22T08:32:28.672Z,18.14
2023-03-22T08:34:56.242Z,17.94
2023-03-22T08:37:23.944Z,18.22
2023-03-22T08:39:51.679Z,18.49
2023-03-22T08:42:26.743Z,18.45
2023-03-22T08:44:54.380Z,18.96
2023-03-22T08:47:25.017Z,18.97
2023-03-22T08:49:57.347Z,19.39
2023-03-22T08:52:35.779Z,19.44
2023-03-22T08:55:09.065Z,19.19
2023-03-22T08:58:04.321Z,19.31
2023-03-22T09:00:50.044Z,19.16
2023-03-22T09:03:43.909Z,19.12
2023-03-22T09:06:11.734Z,19.10
2023-03-22T09:08:42.164Z,18.95
2023-03-22T09:11:17.817Z,18.79
2023-03-22T09:13:48.744Z,18.86
2023-03-22T09:16:17.066Z,19.35
2023-03-22T09:18:45.948Z,19.46
2023-03-22T09:21:17.316Z,19.44
2023-03-22T09:23:56.615Z,19.90
2023-03-22T09:26:33.569Z,20.06
2023-03-22T09:29:01.154Z,20.15
2023-03-22T09:31:29.389Z,20.34
2023-03-22T09:34:07.689Z,20.76
2023-03-22T09:36:35.216Z,20.60
2023-03-22T09:39:06.818Z,20.38
2023-03-22T09:41:40.787Z,20.10
2023-03-22T09:44:16.088Z,20.15
2023-03-22T09:46:50.386Z,19.51
2023-03-22T09:49:24.576Z,18.26
2023-03-22T09:51:54.706Z,18.05
2023-03-22T09:54:39.210Z,17.81
2023-03-22T09:57:18.911Z,17.53
2023-03-22T09:59:52.486Z,17.20
2023-03-22T10:02:57.274Z,17.98
2023-03-22T10:05:43.138Z,18.52
2023-03-22T10:08:27.841Z,18.41
2023-03-22T10:10:57.532Z,18.24
2023-03-22T10:13:37.015Z,18.31
2023-03-22T10:16:10.800Z,18.34
2023-03-22T10:18:43.865Z,17.80
2023-03-22T10:21:13.857Z,17.95
2023-03-22T10:23:49.468Z,18.29
2023-03-22T10:26:39.538Z,17.93
2023-03-22T10:29:24.032Z,17.79
2023-03-22T10:31:51.605Z,18.09
2023-03-22T10:34:33.789Z,17.77
2023-03-22T10:37:05.536Z,17.93
2023-03-22T10:39:38.654Z,17.85
2023-03-22T10:42:23.256Z,18.26
2023-03-22T10:44:55.580Z,18.13
2023-03-22T10:47:48.046Z,17.86
2023-03-22T10:50:22.771Z,18.03
2023-03-22T10:52:59.481Z,18.41
2023-03-22T10:55:27.068Z,18.25
2023-03-22T10:58:12.860Z,18.67
2023-03-22T11:00:49.572Z,18.49
2023-03-22T11:03:40.579Z,18.78
2023-03-22T11:06:12.599Z,18.28
2023-03-22T11:08:51.520Z,18.31
2023-03-22T11:11:45.310Z,18.03
2023-03-22T11:14:37.763Z,17.69
2023-03-22T11:17:19.921Z,18.22
2023-03-22T11:19:58.667Z,18.02
2023-03-22T11:22:39.593Z,17.89
2023-03-22T11:25:34.166Z,17.67
2023-03-22T11:28:04.407Z,17.47
2023-03-22T11:30:33.465Z,17.44
2023-03-22T11:33:15.310Z,17.32
2023-03-22T11:35:46.069Z,17.33
2023-03-22T11:38:36.756Z,17.60
2023-03-22T11:41:12.022Z,17.72
2023-03-22T11:43:48.583Z,18.38
2023-03-22T11:46:19.510Z,18.66
2023-03-22T11:48:50.665Z,18.20
2023-03-22T11:51:28.054Z,18.11
2023-03-22T11:54:01.682Z,18.24
2023-03-22T11:56:30.511Z,18.36
2023-03-22T11:59:05.148Z,18.66
2023-03-22T12:01:43.312Z,18.99
2023-03-22T12:04:17.248Z,18.90
2023-03-22T12:06:45.073Z,18.74
2023-03-22T12:09:29.025Z,18.29
2023-03-22T12:11:59.474Z,18.03
2023-03-22T12:14:39.351Z,17.88
2023-03-22T12:17:39.619Z,17.73
2023-03-22T12:20:20.442Z,18.27
2023-03-22T12:22:52.900Z,18.75
2023-03-22T12:26:04.566Z,19.14
2023-03-22T12:28:40.811Z,19.30
2023-03-22T12:31:21.838Z,19.66
2023-03-22T12:33:54.167Z,19.72
2023-03-22T12:36:52.667Z,19.59
2023-03-22T12:39:35.295Z,20.03
2023-03-22T12:42:17.970Z,20.00
2023-03-22T12:44:52.830Z,20.11
2023-03-22T12:47:38.491Z,20.23
2023-03-22T12:50:34.350Z,20.16
2023-03-22T12:53:04.556Z,20.30
2023-03-22T12:55:36.889Z,20.04
2023-03-22T12:58:08.847Z,20.34
2023-03-22T13:00:49.782Z,20.31
2023-03-22T13:03:20.299Z,20.37
2023-03-22T13:05:50.820Z,20.08
2023-03-22T13:08:22.591Z,19.97
2023-03-22T13:11:05.201Z,19.98
2023-03-22T13:13:41.775Z,19.78
2023-03-22T13:16:09.394Z,20.23
2023-03-22T13:18:37.741Z,20.20
2023-03-22T13:21:13.547Z,20.42
2023-03-22T13:24:20.965Z,20.43
2023-03-22T13:26:54.410Z,20.55
2023-03-22T13:29:26.123Z,20.19
2023-03-22T13:31:59.079Z,20.23
2023-03-22T13:34:45.000Z,20.36
2023-03-22T13:37:46.085Z,20.26
2023-03-22T13:40:36.535Z,20.27
2023-03-22T13:43:33.171Z,20.34
2023-03-22T13:46:09.686Z,20.03
2023-03-22T13:48:52.614Z,19.87
2023-03-22T13:51:25.363Z,19.79
2023-03-22T13:54:11.673Z,19.51
2023-03-22T13:56:44.670Z,19.65
2023-03-22T13:59:27.508Z,19.79
2023-03-22T14:02:22.206Z,19.96
2023-03-22T14:04:57.363Z,19.90
2023-03-22T14:07:45.049Z,19.94
2023-03-22T14:10:32.741Z,19.86
2023-03-22T14:13:23.936Z,19.72
2023-03-22T14:15:55.928Z,19.61
2023-03-22T14:18:32.140Z,19.58
2023-03-22T14:21:04.062Z,19.40
